x

South Brooks (46132) Wave Buoy

1:00 - Sun 31st Jul 2016 All times are PDT. -7 hours from GMT.

  • Sig Wave height 7.2ft
  • Peak Period 8s
  • Wind
    16mph, 20mph gusts
  • Sea Temp 55°f
  • Ar Temp 60°f
  • Sea Pressure 1017.9mb
  • South Brooks
  • South Brooks

More Historic Weather Station data

Upgrade to MSW Pro to gain access to the past 30 days of data for over 8000 Wavebouys and Weather Stations around the globe.

Join Pro

Comparision Forecast

View Surf forecast
   
Dom 07/31 1:00 7ft 8s 16 20 mph 1017.9mb 55f 60f
12:00 7.5ft 8s 20 25 mph 1017.7mb 56f 60f
Sáb 07/30 11:00 7ft 7s 20 25 mph 1017.8mb 56f 60f
10:00 6.5ft 8s 27 31 mph 1017.2mb 57f 60f
9:00 7ft 8s 29 34 mph 1017.2mb 57f 61f
8:00 7ft 7s 27 31 mph 1017.6mb 57f 61f
7:00 6.5ft 7s 27 31 mph 1018mb 56f 60f
6:00 6.5ft 7s 27 31 mph 1018.2mb 56f 60f
5:00 7ft 7s 25 31 mph 1018.5mb 56f 60f
4:00 7ft 7s 25 29 mph 1018.6mb 55f 60f
3:00 8ft 8s 25 29 mph 1018.7mb 55f 60f
2:00 7.5ft 8s 25 29 mph 1018.7mb 55f 60f
1:00 7ft 8s 25 29 mph 1018.5mb 55f 60f
12:00 7.5ft 7s 27 31 mph 1018.4mb 55f 60f
11:00 7.5ft 8s 25 31 mph 1018.3mb 56f 60f
10:00 7ft 8s 27 31 mph 1018.2mb 56f 60f
9:00 7ft 8s 27 34 mph 1018.1mb 56f 60f
8:00 7.5ft 7s 27 31 mph 1018.2mb 56f 60f
7:00  -   -  27
mph
1018mb 56f 60f
6:00 8.5ft 7s 29 36 mph 1017.8mb 55f 60f
5:00 8ft 8s 29 34 mph 1017.7mb 56f 60f
4:00 8.5ft 8s 27 34 mph 1017.8mb 55f 60f
3:00 7.5ft 8s 27 34 mph 1018.1mb 55f 59f
2:00 8ft 8s 27 31 mph 1018.2mb 55f 58f
12:00 7.5ft 7s 31 38 mph 1018mb 56f 59f
Sex 07/29 11:00 8ft 7s 29 34 mph 1018.2mb 56f 59f
10:00 7.5ft 7s 29 36 mph 1018.3mb 56f 59f
9:00  -   -  31
mph
- - -
8:00 8ft 7s 34 40 mph 1017.9mb 55f 59f
7:00 8ft 6s 34 43 mph 1018.2mb 55f 59f
6:00 8ft 6s 31 40 mph 1018.9mb 54f 59f
4:00 8ft 6s 31 38 mph 1019.4mb 55f 59f
3:00 8ft 6s 29 36 mph 1019.8mb 54f 59f
2:00 7.5ft 7s 29 34 mph 1020mb 55f 59f
1:00 7.5ft 7s 31 36 mph 1020.2mb 56f 59f
12:00 7ft 6s 29 36 mph 1020mb 56f 59f
11:00  -   -  27
mph
- - -
10:00 6ft 6s 27 34 mph 1019.6mb 56f 59f
9:00 6ft 6s 27 31 mph 1019.6mb 57f 59f
8:00 6ft 7s 25 31 mph 1019.9mb 57f 59f
7:00 5.5ft 6s 25 29 mph 1019.9mb 56f 59f
6:00 6ft 6s 22 29 mph 1020.4mb 56f 59f
5:00 6ft 6s 27 34 mph 1020.8mb 56f 59f
4:00 6.5ft 6s 29 34 mph 1020.6mb 56f 59f
3:00  -   -  29
mph
1020.6mb - 58f
2:00  -   -  29
mph
1020.7mb 56f 58f
1:00  -   -  27
mph
1021mb - 58f
12:00 6ft 5s 31 38 mph 1020.7mb 57f 58f
Qui 07/28 11:00 6ft 5s 27 31 mph 1021mb 57f 58f
10:00 6.5ft 6s 27 34 mph 1021.1mb 57f 58f
8:00 5.5ft 5s 27 31 mph 1020.9mb 57f 59f
6:00 6ft 5s 31 36 mph 1021.2mb 58f 60f
5:00 6ft 5s 27 31 mph 1021.6mb 58f 60f
3:00 5ft 5s 29 38 mph 1022.1mb 58f 60f
2:00 5ft 5s 27 34 mph 1022.6mb 58f 60f
1:00 5ft 5s 27 31 mph 1022.6mb 58f 60f
12:00 5ft 5s 27 31 mph 1022.8mb 58f 60f
11:00 4.5ft 5s 25 31 mph 1022.9mb 58f 60f
10:00 4.5ft 5s 27 31 mph 1022.9mb 58f 59f
9:00 4.5ft 5s 25 29 mph 1022.7mb 58f 59f
8:00 4.5ft 4s 27 31 mph 1022.7mb 58f 59f
7:00 4.5ft 5s 22 27 mph 1022.9mb 58f 59f
6:00 4.5ft 4s 22 27 mph 1022.8mb 58f 59f
5:00 4.5ft 4s 25 27 mph 1022.8mb 58f 59f
4:00 4.5ft 5s 22 27 mph 1023mb 58f 59f
3:00 5ft 5s 27 31 mph 1022.6mb 58f 59f
2:00 5ft 5s 22 27 mph 1022.7mb 58f 59f
1:00 5.5ft 6s 22 27 mph 1023.1mb 58f 60f
12:00 6ft 6s 29 34 mph 1022.7mb 58f 60f
Qua 07/27 11:00  -   -  29
mph
1022.9mb - 60f
9:00  -   -  27
mph
1022.3mb - 59f
8:00 5ft 5s 22 27 mph 1022.2mb 56f 59f
7:00 5.5ft 5s 25 29 mph 1022.2mb 56f 60f
6:00 5ft 5s 29 34 mph 1022mb 56f 60f
5:00 5.5ft 5s 27 34 mph 1022.5mb 56f 60f
4:00  -   -  25
mph
- - 59f
3:00 5ft 5s 22 29 mph 1023.2mb 56f 59f
2:00 4.5ft 5s 20 25 mph 1023.6mb 56f 60f
1:00 4.5ft 5s 22 29 mph 1023.4mb 56f 59f
12:00 4.5ft 5s 25 29 mph 1023.2mb 56f 59f
11:00 4.5ft 5s 22 25 mph 1023mb 56f 58f
10:00 5ft 5s 22 27 mph 1023mb 56f 58f